sensor_id;sensor_type;location;lat;lon;timestamp;P1;durP1;ratioP1;P2;durP2;ratioP2
25045;SDS011;13044;49.304;12.840;2023-03-04T00:00:49;53.47;;;25.10;;
25045;SDS011;13044;49.304;12.840;2023-03-04T00:03:16;58.30;;;27.05;;
25045;SDS011;13044;49.304;12.840;2023-03-04T00:05:44;52.20;;;25.77;;
25045;SDS011;13044;49.304;12.840;2023-03-04T00:08:12;53.17;;;26.83;;
25045;SDS011;13044;49.304;12.840;2023-03-04T00:10:39;55.97;;;26.52;;
25045;SDS011;13044;49.304;12.840;2023-03-04T00:13:07;52.65;;;26.70;;
25045;SDS011;13044;49.304;12.840;2023-03-04T00:15:34;46.47;;;24.75;;
25045;SDS011;13044;49.304;12.840;2023-03-04T00:18:01;47.20;;;23.85;;
25045;SDS011;13044;49.304;12.840;2023-03-04T00:20:28;51.25;;;25.42;;
25045;SDS011;13044;49.304;12.840;2023-03-04T00:22:56;50.50;;;24.98;;
25045;SDS011;13044;49.304;12.840;2023-03-04T00:25:23;57.20;;;26.88;;
25045;SDS011;13044;49.304;12.840;2023-03-04T00:27:52;54.60;;;26.65;;
25045;SDS011;13044;49.304;12.840;2023-03-04T00:30:20;59.13;;;28.10;;
25045;SDS011;13044;49.304;12.840;2023-03-04T00:32:48;58.00;;;28.38;;
25045;SDS011;13044;49.304;12.840;2023-03-04T00:35:16;53.70;;;26.70;;
25045;SDS011;13044;49.304;12.840;2023-03-04T00:37:43;58.22;;;26.90;;
25045;SDS011;13044;49.304;12.840;2023-03-04T00:40:11;58.45;;;28.33;;
25045;SDS011;13044;49.304;12.840;2023-03-04T00:42:39;63.05;;;29.58;;
25045;SDS011;13044;49.304;12.840;2023-03-04T00:45:07;55.72;;;28.15;;
25045;SDS011;13044;49.304;12.840;2023-03-04T00:47:36;61.92;;;28.15;;
25045;SDS011;13044;49.304;12.840;2023-03-04T00:50:03;56.45;;;27.90;;
25045;SDS011;13044;49.304;12.840;2023-03-04T00:52:31;55.08;;;27.33;;
25045;SDS011;13044;49.304;12.840;2023-03-04T00:55:00;59.53;;;28.85;;
25045;SDS011;13044;49.304;12.840;2023-03-04T00:57:27;60.72;;;27.25;;
25045;SDS011;13044;49.304;12.840;2023-03-04T00:59:54;54.28;;;29.05;;
25045;SDS011;13044;49.304;12.840;2023-03-04T01:02:21;60.30;;;28.70;;
25045;SDS011;13044;49.304;12.840;2023-03-04T01:04:48;57.42;;;27.90;;
25045;SDS011;13044;49.304;12.840;2023-03-04T01:07:16;62.20;;;28.73;;
25045;SDS011;13044;49.304;12.840;2023-03-04T01:09:43;61.42;;;28.70;;
25045;SDS011;13044;49.304;12.840;2023-03-04T01:12:09;64.43;;;30.20;;
25045;SDS011;13044;49.304;12.840;2023-03-04T01:14:37;64.97;;;30.50;;
25045;SDS011;13044;49.304;12.840;2023-03-04T01:17:05;61.38;;;28.85;;
25045;SDS011;13044;49.304;12.840;2023-03-04T01:19:33;61.28;;;28.75;;
25045;SDS011;13044;49.304;12.840;2023-03-04T01:22:00;60.13;;;29.05;;
25045;SDS011;13044;49.304;12.840;2023-03-04T01:24:27;60.85;;;29.40;;
25045;SDS011;13044;49.304;12.840;2023-03-04T01:26:55;58.38;;;29.35;;
25045;SDS011;13044;49.304;12.840;2023-03-04T01:29:22;64.53;;;29.25;;
25045;SDS011;13044;49.304;12.840;2023-03-04T01:31:49;53.40;;;26.80;;
25045;SDS011;13044;49.304;12.840;2023-03-04T01:34:16;60.08;;;28.77;;
25045;SDS011;13044;49.304;12.840;2023-03-04T01:36:43;59.50;;;28.90;;
25045;SDS011;13044;49.304;12.840;2023-03-04T01:39:10;59.08;;;28.65;;
25045;SDS011;13044;49.304;12.840;2023-03-04T01:41:37;56.53;;;27.67;;
25045;SDS011;13044;49.304;12.840;2023-03-04T01:44:05;65.28;;;27.45;;
25045;SDS011;13044;49.304;12.840;2023-03-04T01:46:34;61.40;;;29.08;;
25045;SDS011;13044;49.304;12.840;2023-03-04T01:49:02;53.95;;;26.77;;
25045;SDS011;13044;49.304;12.840;2023-03-04T01:51:31;51.33;;;26.52;;
25045;SDS011;13044;49.304;12.840;2023-03-04T01:53:58;55.05;;;26.77;;
25045;SDS011;13044;49.304;12.840;2023-03-04T01:56:29;51.33;;;25.85;;
25045;SDS011;13044;49.304;12.840;2023-03-04T01:59:17;53.45;;;26.50;;
25045;SDS011;13044;49.304;12.840;2023-03-04T02:01:52;55.42;;;27.30;;
25045;SDS011;13044;49.304;12.840;2023-03-04T02:04:23;58.22;;;27.27;;
25045;SDS011;13044;49.304;12.840;2023-03-04T02:06:57;57.92;;;26.70;;
25045;SDS011;13044;49.304;12.840;2023-03-04T02:09:25;49.92;;;25.63;;
25045;SDS011;13044;49.304;12.840;2023-03-04T02:11:54;58.63;;;26.65;;
25045;SDS011;13044;49.304;12.840;2023-03-04T02:14:22;52.20;;;24.95;;
25045;SDS011;13044;49.304;12.840;2023-03-04T02:16:49;51.30;;;25.77;;
25045;SDS011;13044;49.304;12.840;2023-03-04T02:19:30;52.80;;;25.42;;
25045;SDS011;13044;49.304;12.840;2023-03-04T02:22:12;52.47;;;24.98;;
25045;SDS011;13044;49.304;12.840;2023-03-04T02:27:13;50.72;;;25.33;;
25045;SDS011;13044;49.304;12.840;2023-03-04T02:29:40;59.90;;;26.77;;
25045;SDS011;13044;49.304;12.840;2023-03-04T02:32:09;48.80;;;23.27;;
25045;SDS011;13044;49.304;12.840;2023-03-04T02:34:37;51.45;;;25.15;;
25045;SDS011;13044;49.304;12.840;2023-03-04T02:37:12;58.33;;;26.55;;
25045;SDS011;13044;49.304;12.840;2023-03-04T02:39:43;53.80;;;24.90;;
25045;SDS011;13044;49.304;12.840;2023-03-04T02:42:12;51.13;;;23.73;;
25045;SDS011;13044;49.304;12.840;2023-03-04T02:44:40;53.10;;;23.25;;
25045;SDS011;13044;49.304;12.840;2023-03-04T02:47:12;53.85;;;23.63;;
25045;SDS011;13044;49.304;12.840;2023-03-04T02:49:45;52.10;;;22.40;;
25045;SDS011;13044;49.304;12.840;2023-03-04T02:52:19;50.30;;;23.75;;
25045;SDS011;13044;49.304;12.840;2023-03-04T02:54:48;52.92;;;23.23;;
25045;SDS011;13044;49.304;12.840;2023-03-04T02:57:15;55.17;;;23.75;;
25045;SDS011;13044;49.304;12.840;2023-03-04T02:59:42;49.60;;;22.77;;
25045;SDS011;13044;49.304;12.840;2023-03-04T03:02:09;49.60;;;22.20;;
25045;SDS011;13044;49.304;12.840;2023-03-04T03:04:37;46.30;;;22.45;;
25045;SDS011;13044;49.304;12.840;2023-03-04T03:07:04;49.88;;;23.55;;
25045;SDS011;13044;49.304;12.840;2023-03-04T03:09:33;50.75;;;22.05;;
25045;SDS011;13044;49.304;12.840;2023-03-04T03:12:00;52.65;;;22.70;;
25045;SDS011;13044;49.304;12.840;2023-03-04T03:14:26;48.70;;;22.10;;
25045;SDS011;13044;49.304;12.840;2023-03-04T03:16:53;47.30;;;22.08;;
25045;SDS011;13044;49.304;12.840;2023-03-04T03:19:21;46.00;;;21.38;;
25045;SDS011;13044;49.304;12.840;2023-03-04T03:21:48;48.13;;;22.55;;
25045;SDS011;13044;49.304;12.840;2023-03-04T03:24:15;52.35;;;23.08;;
25045;SDS011;13044;49.304;12.840;2023-03-04T03:26:42;51.55;;;21.90;;
25045;SDS011;13044;49.304;12.840;2023-03-04T03:29:09;50.70;;;22.40;;
25045;SDS011;13044;49.304;12.840;2023-03-04T03:31:36;58.17;;;23.63;;
25045;SDS011;13044;49.304;12.840;2023-03-04T03:34:02;46.53;;;20.90;;
25045;SDS011;13044;49.304;12.840;2023-03-04T03:36:29;51.75;;;22.42;;
25045;SDS011;13044;49.304;12.840;2023-03-04T03:38:56;42.75;;;20.05;;
25045;SDS011;13044;49.304;12.840;2023-03-04T03:41:23;54.72;;;21.58;;
25045;SDS011;13044;49.304;12.840;2023-03-04T03:43:50;47.28;;;21.10;;
25045;SDS011;13044;49.304;12.840;2023-03-04T03:46:17;55.42;;;23.38;;
25045;SDS011;13044;49.304;12.840;2023-03-04T03:48:44;49.45;;;21.77;;
25045;SDS011;13044;49.304;12.840;2023-03-04T03:51:12;45.13;;;21.02;;
25045;SDS011;13044;49.304;12.840;2023-03-04T03:53:39;48.28;;;22.00;;
25045;SDS011;13044;49.304;12.840;2023-03-04T03:56:06;52.03;;;23.05;;
25045;SDS011;13044;49.304;12.840;2023-03-04T03:58:33;52.20;;;22.52;;
25045;SDS011;13044;49.304;12.840;2023-03-04T04:01:01;55.65;;;23.25;;
25045;SDS011;13044;49.304;12.840;2023-03-04T04:03:28;52.50;;;21.67;;
25045;SDS011;13044;49.304;12.840;2023-03-04T04:05:56;49.58;;;20.58;;
25045;SDS011;13044;49.304;12.840;2023-03-04T04:08:22;50.05;;;21.50;;
25045;SDS011;13044;49.304;12.840;2023-03-04T04:10:49;48.92;;;22.83;;
25045;SDS011;13044;49.304;12.840;2023-03-04T04:13:16;49.05;;;22.25;;
25045;SDS011;13044;49.304;12.840;2023-03-04T04:15:43;54.47;;;22.20;;
25045;SDS011;13044;49.304;12.840;2023-03-04T04:18:11;50.13;;;20.83;;
25045;SDS011;13044;49.304;12.840;2023-03-04T04:20:39;51.65;;;22.20;;
25045;SDS011;13044;49.304;12.840;2023-03-04T04:23:06;47.95;;;21.27;;
25045;SDS011;13044;49.304;12.840;2023-03-04T04:25:33;54.33;;;23.30;;
25045;SDS011;13044;49.304;12.840;2023-03-04T04:28:00;53.08;;;22.63;;
25045;SDS011;13044;49.304;12.840;2023-03-04T04:30:27;54.72;;;21.73;;
25045;SDS011;13044;49.304;12.840;2023-03-04T04:32:55;48.70;;;20.70;;
25045;SDS011;13044;49.304;12.840;2023-03-04T04:35:22;49.10;;;22.13;;
25045;SDS011;13044;49.304;12.840;2023-03-04T04:37:49;48.70;;;21.88;;
25045;SDS011;13044;49.304;12.840;2023-03-04T04:40:16;47.50;;;20.63;;
25045;SDS011;13044;49.304;12.840;2023-03-04T04:42:44;56.03;;;22.00;;
25045;SDS011;13044;49.304;12.840;2023-03-04T04:45:11;50.80;;;21.98;;
25045;SDS011;13044;49.304;12.840;2023-03-04T04:47:38;51.45;;;22.10;;
25045;SDS011;13044;49.304;12.840;2023-03-04T04:50:05;48.60;;;22.25;;
25045;SDS011;13044;49.304;12.840;2023-03-04T04:52:34;54.97;;;21.17;;
25045;SDS011;13044;49.304;12.840;2023-03-04T04:55:01;49.70;;;20.95;;
25045;SDS011;13044;49.304;12.840;2023-03-04T04:57:29;46.08;;;20.08;;
25045;SDS011;13044;49.304;12.840;2023-03-04T04:59:56;52.25;;;21.20;;
25045;SDS011;13044;49.304;12.840;2023-03-04T05:02:23;55.00;;;23.30;;
25045;SDS011;13044;49.304;12.840;2023-03-04T05:04:50;47.25;;;20.83;;
25045;SDS011;13044;49.304;12.840;2023-03-04T05:07:18;55.30;;;22.23;;
25045;SDS011;13044;49.304;12.840;2023-03-04T05:09:45;52.42;;;21.95;;
25045;SDS011;13044;49.304;12.840;2023-03-04T05:12:11;57.28;;;23.05;;
25045;SDS011;13044;49.304;12.840;2023-03-04T05:14:38;53.72;;;21.98;;
25045;SDS011;13044;49.304;12.840;2023-03-04T05:17:06;54.80;;;22.73;;
25045;SDS011;13044;49.304;12.840;2023-03-04T05:19:33;52.50;;;22.65;;
25045;SDS011;13044;49.304;12.840;2023-03-04T05:22:00;53.58;;;22.70;;
25045;SDS011;13044;49.304;12.840;2023-03-04T05:24:27;61.10;;;23.45;;
25045;SDS011;13044;49.304;12.840;2023-03-04T05:26:54;51.78;;;22.20;;
25045;SDS011;13044;49.304;12.840;2023-03-04T05:29:21;53.15;;;22.15;;
25045;SDS011;13044;49.304;12.840;2023-03-04T05:31:50;53.55;;;22.30;;
25045;SDS011;13044;49.304;12.840;2023-03-04T05:34:17;56.50;;;23.27;;
25045;SDS011;13044;49.304;12.840;2023-03-04T05:36:43;49.22;;;21.83;;
25045;SDS011;13044;49.304;12.840;2023-03-04T05:39:11;50.85;;;22.30;;
25045;SDS011;13044;49.304;12.840;2023-03-04T05:41:37;51.50;;;22.48;;
25045;SDS011;13044;49.304;12.840;2023-03-04T05:44:04;53.53;;;23.65;;
25045;SDS011;13044;49.304;12.840;2023-03-04T05:46:31;49.10;;;22.25;;
25045;SDS011;13044;49.304;12.840;2023-03-04T05:48:59;54.38;;;23.15;;
25045;SDS011;13044;49.304;12.840;2023-03-04T05:51:26;55.72;;;22.77;;
25045;SDS011;13044;49.304;12.840;2023-03-04T05:53:52;54.63;;;23.10;;
25045;SDS011;13044;49.304;12.840;2023-03-04T05:56:21;52.88;;;22.73;;
25045;SDS011;13044;49.304;12.840;2023-03-04T05:58:48;52.78;;;22.40;;
25045;SDS011;13044;49.304;12.840;2023-03-04T06:01:15;51.85;;;21.00;;
25045;SDS011;13044;49.304;12.840;2023-03-04T06:03:43;57.92;;;22.40;;
25045;SDS011;13044;49.304;12.840;2023-03-04T06:06:11;57.90;;;22.98;;
25045;SDS011;13044;49.304;12.840;2023-03-04T06:08:38;62.97;;;23.95;;
25045;SDS011;13044;49.304;12.840;2023-03-04T06:11:05;53.30;;;23.70;;
25045;SDS011;13044;49.304;12.840;2023-03-04T06:13:35;55.20;;;24.88;;
25045;SDS011;13044;49.304;12.840;2023-03-04T06:16:04;58.47;;;22.98;;
25045;SDS011;13044;49.304;12.840;2023-03-04T06:18:32;55.53;;;24.20;;
25045;SDS011;13044;49.304;12.840;2023-03-04T06:21:01;58.30;;;23.75;;
25045;SDS011;13044;49.304;12.840;2023-03-04T06:23:29;62.67;;;24.63;;
25045;SDS011;13044;49.304;12.840;2023-03-04T06:25:58;63.15;;;25.25;;
25045;SDS011;13044;49.304;12.840;2023-03-04T06:28:27;53.80;;;22.63;;
25045;SDS011;13044;49.304;12.840;2023-03-04T06:30:55;56.42;;;22.48;;
25045;SDS011;13044;49.304;12.840;2023-03-04T06:33:23;60.72;;;25.35;;
25045;SDS011;13044;49.304;12.840;2023-03-04T06:35:55;54.42;;;23.67;;
25045;SDS011;13044;49.304;12.840;2023-03-04T06:38:24;57.85;;;22.23;;
25045;SDS011;13044;49.304;12.840;2023-03-04T06:40:52;64.35;;;25.20;;
25045;SDS011;13044;49.304;12.840;2023-03-04T06:43:22;59.78;;;22.95;;
25045;SDS011;13044;49.304;12.840;2023-03-04T06:45:50;59.20;;;24.77;;
25045;SDS011;13044;49.304;12.840;2023-03-04T06:48:17;53.22;;;21.45;;
25045;SDS011;13044;49.304;12.840;2023-03-04T06:50:44;54.83;;;23.38;;
25045;SDS011;13044;49.304;12.840;2023-03-04T06:53:11;62.05;;;24.45;;
25045;SDS011;13044;49.304;12.840;2023-03-04T06:55:39;53.67;;;23.63;;
25045;SDS011;13044;49.304;12.840;2023-03-04T06:58:06;53.05;;;23.10;;
25045;SDS011;13044;49.304;12.840;2023-03-04T07:00:34;51.72;;;22.60;;
25045;SDS011;13044;49.304;12.840;2023-03-04T07:03:01;55.03;;;22.58;;
25045;SDS011;13044;49.304;12.840;2023-03-04T07:05:28;57.35;;;22.73;;
25045;SDS011;13044;49.304;12.840;2023-03-04T07:07:56;54.75;;;23.00;;
25045;SDS011;13044;49.304;12.840;2023-03-04T07:10:23;49.42;;;18.80;;
25045;SDS011;13044;49.304;12.840;2023-03-04T07:12:51;52.35;;;22.67;;
25045;SDS011;13044;49.304;12.840;2023-03-04T07:15:18;47.63;;;21.10;;
25045;SDS011;13044;49.304;12.840;2023-03-04T07:17:47;57.80;;;23.80;;
25045;SDS011;13044;49.304;12.840;2023-03-04T07:20:14;47.20;;;20.27;;
25045;SDS011;13044;49.304;12.840;2023-03-04T07:22:42;55.38;;;24.02;;
25045;SDS011;13044;49.304;12.840;2023-03-04T07:25:10;50.88;;;22.15;;
25045;SDS011;13044;49.304;12.840;2023-03-04T07:27:37;56.20;;;24.60;;
25045;SDS011;13044;49.304;12.840;2023-03-04T07:30:06;52.30;;;22.58;;
25045;SDS011;13044;49.304;12.840;2023-03-04T07:32:35;50.33;;;22.05;;
25045;SDS011;13044;49.304;12.840;2023-03-04T07:35:02;49.22;;;20.70;;
25045;SDS011;13044;49.304;12.840;2023-03-04T07:37:31;50.47;;;20.98;;
25045;SDS011;13044;49.304;12.840;2023-03-04T07:39:59;51.58;;;22.48;;
25045;SDS011;13044;49.304;12.840;2023-03-04T07:42:26;47.10;;;19.35;;
25045;SDS011;13044;49.304;12.840;2023-03-04T07:44:54;55.90;;;22.98;;
25045;SDS011;13044;49.304;12.840;2023-03-04T07:47:21;49.42;;;21.60;;
25045;SDS011;13044;49.304;12.840;2023-03-04T07:49:49;51.70;;;21.75;;
25045;SDS011;13044;49.304;12.840;2023-03-04T07:52:15;48.38;;;20.02;;
25045;SDS011;13044;49.304;12.840;2023-03-04T07:54:42;40.55;;;18.40;;
25045;SDS011;13044;49.304;12.840;2023-03-04T07:57:09;36.78;;;16.73;;
25045;SDS011;13044;49.304;12.840;2023-03-04T07:59:36;35.25;;;17.20;;
25045;SDS011;13044;49.304;12.840;2023-03-04T08:02:03;30.67;;;16.30;;
25045;SDS011;13044;49.304;12.840;2023-03-04T08:04:31;33.08;;;16.70;;
25045;SDS011;13044;49.304;12.840;2023-03-04T08:06:59;31.35;;;16.50;;
25045;SDS011;13044;49.304;12.840;2023-03-04T08:09:25;31.17;;;16.95;;
25045;SDS011;13044;49.304;12.840;2023-03-04T08:11:53;36.92;;;16.00;;
25045;SDS011;13044;49.304;12.840;2023-03-04T08:14:20;29.98;;;15.77;;
25045;SDS011;13044;49.304;12.840;2023-03-04T08:16:47;29.05;;;15.35;;
25045;SDS011;13044;49.304;12.840;2023-03-04T08:19:14;30.45;;;16.25;;
25045;SDS011;13044;49.304;12.840;2023-03-04T08:21:42;30.85;;;16.60;;
25045;SDS011;13044;49.304;12.840;2023-03-04T08:24:09;29.88;;;16.40;;
25045;SDS011;13044;49.304;12.840;2023-03-04T08:26:42;30.88;;;16.52;;
25045;SDS011;13044;49.304;12.840;2023-03-04T08:29:13;29.85;;;16.48;;
25045;SDS011;13044;49.304;12.840;2023-03-04T08:31:43;33.55;;;16.77;;
25045;SDS011;13044;49.304;12.840;2023-03-04T08:34:14;30.08;;;15.48;;
25045;SDS011;13044;49.304;12.840;2023-03-04T08:36:41;34.50;;;17.13;;
25045;SDS011;13044;49.304;12.840;2023-03-04T08:39:11;29.02;;;14.13;;
25045;SDS011;13044;49.304;12.840;2023-03-04T08:41:40;33.50;;;16.65;;
25045;SDS011;13044;49.304;12.840;2023-03-04T08:44:08;30.15;;;15.50;;
25045;SDS011;13044;49.304;12.840;2023-03-04T08:46:36;28.15;;;15.82;;
25045;SDS011;13044;49.304;12.840;2023-03-04T08:49:05;28.73;;;15.35;;
25045;SDS011;13044;49.304;12.840;2023-03-04T08:51:33;31.10;;;16.42;;
25045;SDS011;13044;49.304;12.840;2023-03-04T08:54:04;30.25;;;16.58;;
25045;SDS011;13044;49.304;12.840;2023-03-04T08:56:31;32.15;;;17.23;;
25045;SDS011;13044;49.304;12.840;2023-03-04T08:58:58;29.90;;;15.32;;
25045;SDS011;13044;49.304;12.840;2023-03-04T09:01:25;28.60;;;16.13;;
25045;SDS011;13044;49.304;12.840;2023-03-04T09:03:53;28.55;;;15.65;;
25045;SDS011;13044;49.304;12.840;2023-03-04T09:06:21;29.27;;;15.85;;
25045;SDS011;13044;49.304;12.840;2023-03-04T09:08:48;28.80;;;15.07;;
25045;SDS011;13044;49.304;12.840;2023-03-04T09:11:16;37.55;;;18.77;;
25045;SDS011;13044;49.304;12.840;2023-03-04T09:13:43;30.48;;;15.93;;
25045;SDS011;13044;49.304;12.840;2023-03-04T09:16:10;23.15;;;13.10;;
25045;SDS011;13044;49.304;12.840;2023-03-04T09:18:40;25.83;;;14.05;;
25045;SDS011;13044;49.304;12.840;2023-03-04T09:21:09;26.00;;;14.07;;
25045;SDS011;13044;49.304;12.840;2023-03-04T09:23:37;26.55;;;14.23;;
25045;SDS011;13044;49.304;12.840;2023-03-04T09:26:17;26.67;;;14.50;;
25045;SDS011;13044;49.304;12.840;2023-03-04T09:28:52;25.50;;;12.77;;
25045;SDS011;13044;49.304;12.840;2023-03-04T09:31:25;33.42;;;17.73;;
25045;SDS011;13044;49.304;12.840;2023-03-04T09:33:55;32.67;;;17.38;;
25045;SDS011;13044;49.304;12.840;2023-03-04T09:36:24;31.70;;;17.80;;
25045;SDS011;13044;49.304;12.840;2023-03-04T09:38:51;41.42;;;21.58;;
25045;SDS011;13044;49.304;12.840;2023-03-04T09:41:20;36.13;;;19.60;;
25045;SDS011;13044;49.304;12.840;2023-03-04T09:44:15;27.02;;;15.27;;
25045;SDS011;13044;49.304;12.840;2023-03-04T09:46:49;28.45;;;13.88;;
25045;SDS011;13044;49.304;12.840;2023-03-04T09:49:18;29.45;;;16.30;;
25045;SDS011;13044;49.304;12.840;2023-03-04T10:00:24;30.23;;;14.30;;
25045;SDS011;13044;49.304;12.840;2023-03-04T10:03:13;23.58;;;12.23;;
25045;SDS011;13044;49.304;12.840;2023-03-04T10:05:54;31.85;;;15.63;;
25045;SDS011;13044;49.304;12.840;2023-03-04T10:11:31;26.17;;;13.23;;
25045;SDS011;13044;49.304;12.840;2023-03-04T10:14:23;24.33;;;13.00;;
25045;SDS011;13044;49.304;12.840;2023-03-04T10:17:35;28.83;;;12.70;;
25045;SDS011;13044;49.304;12.840;2023-03-04T10:20:29;26.80;;;13.98;;
25045;SDS011;13044;49.304;12.840;2023-03-04T10:23:07;24.10;;;12.43;;
25045;SDS011;13044;49.304;12.840;2023-03-04T10:25:41;27.17;;;13.75;;
25045;SDS011;13044;49.304;12.840;2023-03-04T10:28:14;26.67;;;14.38;;
25045;SDS011;13044;49.304;12.840;2023-03-04T10:33:25;35.60;;;17.33;;
25045;SDS011;13044;49.304;12.840;2023-03-04T10:38:58;25.83;;;13.45;;
25045;SDS011;13044;49.304;12.840;2023-03-04T10:41:42;28.90;;;14.25;;
25045;SDS011;13044;49.304;12.840;2023-03-04T10:46:44;27.42;;;14.32;;
25045;SDS011;13044;49.304;12.840;2023-03-04T10:49:17;25.73;;;14.45;;
25045;SDS011;13044;49.304;12.840;2023-03-04T10:54:47;31.27;;;16.17;;
25045;SDS011;13044;49.304;12.840;2023-03-04T10:57:18;31.40;;;15.32;;
25045;SDS011;13044;49.304;12.840;2023-03-04T10:59:55;32.03;;;17.25;;
25045;SDS011;13044;49.304;12.840;2023-03-04T11:02:26;33.80;;;17.95;;
25045;SDS011;13044;49.304;12.840;2023-03-04T11:05:05;44.97;;;25.02;;
25045;SDS011;13044;49.304;12.840;2023-03-04T11:13:06;28.63;;;15.50;;
25045;SDS011;13044;49.304;12.840;2023-03-04T11:18:40;31.10;;;15.23;;
25045;SDS011;13044;49.304;12.840;2023-03-04T11:21:43;29.50;;;14.82;;
25045;SDS011;13044;49.304;12.840;2023-03-04T11:24:11;33.53;;;19.25;;
25045;SDS011;13044;49.304;12.840;2023-03-04T11:32:37;32.17;;;16.60;;
25045;SDS011;13044;49.304;12.840;2023-03-04T11:38:04;35.97;;;16.60;;
25045;SDS011;13044;49.304;12.840;2023-03-04T11:40:43;26.58;;;14.90;;
25045;SDS011;13044;49.304;12.840;2023-03-04T11:43:38;25.98;;;14.07;;
25045;SDS011;13044;49.304;12.840;2023-03-04T11:55:01;27.33;;;13.45;;
25045;SDS011;13044;49.304;12.840;2023-03-04T11:57:36;30.30;;;15.25;;
25045;SDS011;13044;49.304;12.840;2023-03-04T12:00:37;25.83;;;13.20;;
25045;SDS011;13044;49.304;12.840;2023-03-04T12:12:22;30.73;;;15.40;;
25045;SDS011;13044;49.304;12.840;2023-03-04T12:41:42;32.47;;;17.33;;
25045;SDS011;13044;49.304;12.840;2023-03-04T12:44:15;30.33;;;16.38;;
25045;SDS011;13044;49.304;12.840;2023-03-04T12:55:41;35.60;;;17.98;;
25045;SDS011;13044;49.304;12.840;2023-03-04T12:58:17;31.55;;;17.95;;
25045;SDS011;13044;49.304;12.840;2023-03-04T13:06:00;33.70;;;16.90;;
25045;SDS011;13044;49.304;12.840;2023-03-04T13:08:52;29.95;;;16.02;;
25045;SDS011;13044;49.304;12.840;2023-03-04T13:12:01;30.25;;;16.67;;
25045;SDS011;13044;49.304;12.840;2023-03-04T13:14:37;31.92;;;15.05;;
25045;SDS011;13044;49.304;12.840;2023-03-04T13:17:51;27.75;;;16.08;;
25045;SDS011;13044;49.304;12.840;2023-03-04T13:23:03;33.28;;;17.88;;
25045;SDS011;13044;49.304;12.840;2023-03-04T13:28:24;32.40;;;17.23;;
25045;SDS011;13044;49.304;12.840;2023-03-04T13:36:04;30.63;;;14.77;;
25045;SDS011;13044;49.304;12.840;2023-03-04T13:38:56;22.65;;;13.93;;
25045;SDS011;13044;49.304;12.840;2023-03-04T13:41:48;28.27;;;15.18;;
25045;SDS011;13044;49.304;12.840;2023-03-04T13:44:31;29.60;;;14.73;;
25045;SDS011;13044;49.304;12.840;2023-03-04T13:47:14;32.80;;;16.48;;
25045;SDS011;13044;49.304;12.840;2023-03-04T13:49:44;35.22;;;16.48;;
25045;SDS011;13044;49.304;12.840;2023-03-04T13:58:12;29.83;;;15.68;;
25045;SDS011;13044;49.304;12.840;2023-03-04T14:00:52;37.05;;;18.35;;
25045;SDS011;13044;49.304;12.840;2023-03-04T14:03:22;39.03;;;19.33;;
25045;SDS011;13044;49.304;12.840;2023-03-04T14:06:10;51.85;;;23.80;;
25045;SDS011;13044;49.304;12.840;2023-03-04T14:08:44;44.00;;;21.63;;
25045;SDS011;13044;49.304;12.840;2023-03-04T14:11:17;32.38;;;16.60;;
25045;SDS011;13044;49.304;12.840;2023-03-04T14:14:02;42.80;;;21.40;;
25045;SDS011;13044;49.304;12.840;2023-03-04T14:16:35;47.13;;;23.00;;
25045;SDS011;13044;49.304;12.840;2023-03-04T14:27:49;34.42;;;15.88;;
25045;SDS011;13044;49.304;12.840;2023-03-04T14:30:30;28.60;;;15.77;;
25045;SDS011;13044;49.304;12.840;2023-03-04T14:33:13;32.47;;;17.95;;
25045;SDS011;13044;49.304;12.840;2023-03-04T14:35:45;29.77;;;16.08;;
25045;SDS011;13044;49.304;12.840;2023-03-04T14:38:26;30.50;;;15.38;;
25045;SDS011;13044;49.304;12.840;2023-03-04T14:41:06;26.42;;;14.52;;
25045;SDS011;13044;49.304;12.840;2023-03-04T14:46:55;35.50;;;15.90;;
25045;SDS011;13044;49.304;12.840;2023-03-04T14:49:34;32.13;;;15.25;;
25045;SDS011;13044;49.304;12.840;2023-03-04T14:52:04;30.48;;;16.10;;
25045;SDS011;13044;49.304;12.840;2023-03-04T14:54:33;30.75;;;15.65;;
25045;SDS011;13044;49.304;12.840;2023-03-04T14:57:41;31.33;;;15.95;;
